createdAt,value
2022-12-09T00:03:06.899Z,3.7
2022-12-09T00:08:50.448Z,3.6
2022-12-09T00:13:57.834Z,3.5
2022-12-09T00:19:06.678Z,3.4
2022-12-09T00:24:45.672Z,3.4
2022-12-09T00:30:10.102Z,3.4
2022-12-09T00:35:50.949Z,3.3
2022-12-09T00:41:31.636Z,3.3
2022-12-09T00:47:12.082Z,3.3
2022-12-09T00:52:36.453Z,3.3
2022-12-09T00:58:17.655Z,3.2
2022-12-09T01:03:58.889Z,3.2
2022-12-09T01:09:39.614Z,3.2
2022-12-09T01:15:03.636Z,3.1
2022-12-09T01:20:29.075Z,3.1
2022-12-09T01:26:09.101Z,3.1
2022-12-09T01:31:34.540Z,3
2022-12-09T01:36:58.801Z,2.9
2022-12-09T01:42:08.716Z,2.9
2022-12-09T01:47:49.620Z,2.9
2022-12-09T01:53:28.967Z,2.8
2022-12-09T01:59:09.704Z,2.8
2022-12-09T02:04:52.796Z,2.7
2022-12-09T02:10:34.045Z,2.6
2022-12-09T02:16:14.884Z,2.6
2022-12-09T02:21:56.519Z,2.5
2022-12-09T02:27:21.257Z,2.4
2022-12-09T02:33:03.616Z,2.4
2022-12-09T02:38:44.398Z,2.4
2022-12-09T02:44:27.884Z,2.4
2022-12-09T02:50:11.191Z,2.3
2022-12-09T03:01:02.901Z,2.3
2022-12-09T03:06:29.640Z,2.3
2022-12-09T03:12:10.926Z,2.3
2022-12-09T03:17:52.242Z,2.3
2022-12-09T03:23:32.754Z,2.3
2022-12-09T03:28:59.153Z,2.3
2022-12-09T03:34:26.215Z,2.3
2022-12-09T03:40:13.583Z,2.3
2022-12-09T03:45:38.825Z,2.3
2022-12-09T03:50:49.192Z,2.3
2022-12-09T03:56:30.583Z,2.3
2022-12-09T04:01:56.600Z,2.3
2022-12-09T04:07:22.816Z,2.3
2022-12-09T04:13:05.687Z,2.3
2022-12-09T04:18:51.299Z,2.3
2022-12-09T04:24:37.697Z,2.3
2022-12-09T04:30:17.705Z,2.3
2022-12-09T04:36:00.456Z,2.3
2022-12-09T04:46:41.449Z,2.3
2022-12-09T04:52:16.039Z,2.3
2022-12-09T04:57:56.103Z,2.3
2022-12-09T05:03:40.530Z,2.3
2022-12-09T05:09:28.591Z,2.3
2022-12-09T05:14:54.746Z,2.3
2022-12-09T05:20:08.307Z,2.3
2022-12-09T05:25:38.978Z,2.3
2022-12-09T05:31:09.252Z,2.3
2022-12-09T05:37:04.345Z,2.3
2022-12-09T05:42:56.198Z,2.3
2022-12-09T05:48:41.537Z,2.3
2022-12-09T05:54:25.805Z,2.3
2022-12-09T06:00:00.153Z,2.3
2022-12-09T06:05:12.076Z,2.3
2022-12-09T06:11:04.084Z,2.4
2022-12-09T06:16:51.114Z,2.4
2022-12-09T06:22:34.545Z,2.4
2022-12-09T06:28:25.646Z,2.6
2022-12-09T06:34:40.730Z,2.6
2022-12-09T06:40:22.833Z,2.8
2022-12-09T06:45:53.075Z,2.9
2022-12-09T06:51:38.202Z,3.1
2022-12-09T06:57:23.970Z,3.4
2022-12-09T07:02:54.500Z,3.9
2022-12-09T07:08:42.584Z,4.3
2022-12-09T07:14:28.186Z,4.6
2022-12-09T07:20:21.584Z,4.9
2022-12-09T07:26:06.225Z,5.3
2022-12-09T07:31:56.426Z,5.8
2022-12-09T07:37:49.255Z,6.2
2022-12-09T07:43:37.992Z,6.6
2022-12-09T07:49:09.160Z,7
2022-12-09T07:54:58.243Z,7.4
2022-12-09T08:00:41.538Z,7.9
2022-12-09T08:06:28.108Z,8.4
2022-12-09T08:12:23.030Z,8.9
2022-12-09T08:18:15.753Z,9.6
2022-12-09T08:24:01.663Z,10.3
2022-12-09T08:29:47.455Z,11
2022-12-09T08:35:38.005Z,12.1
2022-12-09T08:41:22.217Z,13.6
2022-12-09T08:47:07.382Z,14.8
2022-12-09T08:52:57.472Z,15.8
2022-12-09T08:58:40.460Z,17.1
2022-12-09T09:04:26.348Z,22.1
2022-12-09T09:10:16.279Z,26.6
2022-12-09T09:16:07.152Z,20.6
2022-12-09T09:21:57.081Z,34.5
2022-12-09T09:27:41.592Z,32.8
2022-12-09T09:33:28.127Z,32.4
2022-12-09T09:39:20.848Z,47.4
2022-12-09T09:45:05.476Z,47.6
2022-12-09T09:50:36.384Z,47.8
2022-12-09T09:56:27.665Z,49.7
2022-12-09T10:02:16.130Z,51
2022-12-09T10:08:06.439Z,52.1
2022-12-09T10:14:03.386Z,51
2022-12-09T10:19:40.302Z,50.6
2022-12-09T10:25:33.721Z,50.1
2022-12-09T10:31:25.312Z,49.6
2022-12-09T10:37:15.305Z,49
2022-12-09T10:42:58.765Z,48.4
2022-12-09T10:49:12.998Z,47.9
2022-12-09T10:55:01.090Z,47.4
2022-12-09T11:00:51.096Z,46.9
2022-12-09T11:06:38.973Z,46.6
2022-12-09T11:12:36.633Z,46.2
2022-12-09T11:18:28.123Z,45.7
2022-12-09T11:24:20.319Z,45.3
2022-12-09T11:30:11.337Z,45.7
2022-12-09T11:36:42.312Z,45.7
2022-12-09T11:42:11.477Z,45.1
2022-12-09T11:48:43.379Z,44.6
2022-12-09T11:54:07.133Z,44
2022-12-09T11:59:33.462Z,43.6
2022-12-09T12:05:19.922Z,43.1
2022-12-09T12:10:44.774Z,42.1
2022-12-09T12:16:07.134Z,40.3
2022-12-09T12:21:30.127Z,38.8
2022-12-09T12:27:15.546Z,37.3
2022-12-09T12:39:28.209Z,34.8
2022-12-09T12:45:11.026Z,33.6
2022-12-09T12:50:50.513Z,32.4
2022-12-09T12:57:10.029Z,31.2
2022-12-09T13:02:50.698Z,30
2022-12-09T13:08:30.624Z,28.9
2022-12-09T13:14:09.344Z,27.9
2022-12-09T13:19:54.595Z,27
2022-12-09T13:25:38.019Z,26.1
2022-12-09T13:31:07.593Z,25.4
2022-12-09T13:36:34.628Z,24.6
2022-12-09T13:41:58.762Z,23.9
2022-12-09T13:47:37.679Z,23.2
2022-12-09T13:53:20.323Z,22.4
2022-12-09T13:59:05.805Z,21.8
2022-12-09T14:04:15.822Z,21.2
2022-12-09T14:10:00.579Z,20.5
2022-12-09T14:15:38.515Z,19.9
2022-12-09T14:21:17.824Z,19.3
2022-12-09T14:27:02.054Z,18.6
2022-12-09T14:32:40.814Z,18
2022-12-09T14:37:49.549Z,17.6
2022-12-09T14:43:55.796Z,16.9
2022-12-09T14:49:42.895Z,16.4
2022-12-09T14:55:27.764Z,15.9
2022-12-09T15:01:09.869Z,15.5
2022-12-09T15:07:14.021Z,15
2022-12-09T15:12:52.329Z,14.6
2022-12-09T15:18:34.547Z,14.2
2022-12-09T15:24:25.242Z,13.8
2022-12-09T15:29:55.287Z,13.6
2022-12-09T15:35:21.244Z,13.2
2022-12-09T15:40:44.106Z,12.9
2022-12-09T15:46:28.708Z,12.6
